Time;durP1;ratioP1;P1;durP2;ratioP2;P2;SDS_P1;SDS_P2;PMS_P1;PMS_P2;Temp;Humidity;BMP_temperature;BMP_pressure;BME280_temperature;BME280_humidity;BME280_pressure;Samples;Min_cycle;Max_cycle;Signal;HPM_P1;HPM_P2
2022/05/31 00:00:24;;;;;;;2.80;0.80;;;15.10;76.00;;;;;;5073900;28;20055;-76
2022/05/31 00:02:51;;;;;;;3.67;0.80;;;15.00;75.80;;;;;;5074146;28;20035;-76
2022/05/31 00:05:17;;;;;;;3.08;0.95;;;14.90;75.90;;;;;;5073935;28;20052;-76
2022/05/31 00:07:43;;;;;;;1.88;0.98;;;14.90;76.10;;;;;;5073750;28;20117;-76
2022/05/31 00:10:10;;;;;;;4.15;1.10;;;14.90;76.20;;;;;;5073689;28;20032;-76
2022/05/31 00:12:36;;;;;;;2.10;0.60;;;14.90;76.40;;;;;;5073405;28;20021;-76
2022/05/31 00:15:04;;;;;;;2.25;0.73;;;14.90;76.40;;;;;;5073914;28;20078;-76
2022/05/31 00:17:29;;;;;;;1.58;0.60;;;14.90;76.40;;;;;;5073818;28;20059;-75
2022/05/31 00:19:55;;;;;;;3.65;0.90;;;14.90;76.50;;;;;;5073628;28;20056;-76
2022/05/31 00:22:24;;;;;;;3.30;1.40;;;14.90;76.40;;;;;;5073629;28;20024;-76
2022/05/31 00:24:50;;;;;;;1.85;0.50;;;14.80;76.50;;;;;;5073786;28;20032;-76
2022/05/31 00:27:19;;;;;;;2.17;0.95;;;14.80;76.70;;;;;;5073417;28;20384;-76
2022/05/31 00:29:47;;;;;;;3.22;1.02;;;14.70;76.70;;;;;;5073698;28;20044;-76
2022/05/31 00:32:16;;;;;;;1.95;0.80;;;14.70;76.80;;;;;;5073378;28;20477;-76
2022/05/31 00:34:45;;;;;;;2.25;0.93;;;14.60;76.80;;;;;;5072939;28;20552;-76
2022/05/31 00:37:12;;;;;;;2.20;0.68;;;14.60;77.00;;;;;;5073301;28;20058;-75
2022/05/31 00:39:38;;;;;;;3.17;0.82;;;14.70;77.10;;;;;;5073340;28;20020;-76
2022/05/31 00:42:11;;;;;;;2.70;0.75;;;14.70;77.10;;;;;;5073302;28;20395;-75
2022/05/31 00:44:37;;;;;;;1.77;0.80;;;14.70;77.10;;;;;;5073697;28;20016;-75
2022/05/31 00:47:03;;;;;;;5.03;1.10;;;14.70;77.10;;;;;;5073196;28;20047;-75
2022/05/31 00:49:32;;;;;;;1.50;0.63;;;14.70;77.20;;;;;;5073336;28;20041;-75
2022/05/31 00:52:01;;;;;;;3.20;1.17;;;14.70;77.20;;;;;;5073282;28;20058;-75
2022/05/31 00:54:30;;;;;;;2.22;0.80;;;14.70;77.10;;;;;;5073207;28;20031;-75
2022/05/31 00:56:57;;;;;;;1.23;0.80;;;14.70;77.30;;;;;;5073567;28;20505;-75
2022/05/31 00:59:39;;;;;;;2.00;1.08;;;14.70;77.30;;;;;;5073108;28;20029;-75
2022/05/31 01:02:06;;;;;;;1.53;1.03;;;14.70;77.00;;;;;;5073448;28;20107;-75
2022/05/31 01:04:39;;;;;;;2.72;1.70;;;14.70;77.00;;;;;;5073363;28;20471;-75
2022/05/31 01:07:06;;;;;;;1.27;0.68;;;14.80;77.10;;;;;;5073239;28;20074;-75
2022/05/31 01:09:32;;;;;;;4.82;1.55;;;14.80;77.10;;;;;;5073281;28;20037;-75
2022/05/31 01:11:59;;;;;;;1.50;1.00;;;14.70;76.80;;;;;;5073241;28;20119;-75
2022/05/31 01:14:26;;;;;;;3.20;1.45;;;14.70;77.30;;;;;;5073110;28;20036;-75
2022/05/31 01:17:20;;;;;;;1.83;1.17;;;14.60;77.00;;;;;;5073231;28;20025;-75
2022/05/31 01:19:55;;;;;;;1.65;0.60;;;14.50;77.10;;;;;;5068512;28;20039;-75
2022/05/31 01:22:31;;;;;;;2.65;1.00;;;14.60;77.30;;;;;;5072902;28;20020;-75
2022/05/31 01:24:59;;;;;;;3.28;1.20;;;14.50;77.30;;;;;;5072901;28;20035;-75
2022/05/31 01:27:54;;;;;;;2.03;0.88;;;14.60;77.30;;;;;;5072769;28;20112;-75
2022/05/31 01:30:20;;;;;;;2.78;0.90;;;14.60;77.10;;;;;;5073013;28;20032;-75
2022/05/31 01:33:07;;;;;;;4.05;0.60;;;14.60;77.30;;;;;;5072735;28;20025;-75
2022/05/31 01:35:34;;;;;;;4.40;0.90;;;14.60;77.30;;;;;;5072944;28;20035;-75
2022/05/31 01:38:12;;;;;;;2.38;1.02;;;14.60;77.10;;;;;;5072732;28;20387;-75
2022/05/31 01:41:06;;;;;;;2.10;0.90;;;14.60;77.00;;;;;;5073039;28;20045;-75
2022/05/31 01:43:33;;;;;;;2.33;1.15;;;14.60;76.90;;;;;;5072446;28;20024;-75
2022/05/31 01:46:15;;;;;;;1.63;0.60;;;14.60;76.80;;;;;;5072957;28;20033;-75
2022/05/31 01:48:42;;;;;;;3.63;1.00;;;14.60;76.90;;;;;;5076666;28;20048;-75
2022/05/31 01:51:10;;;;;;;4.53;1.15;;;14.60;77.50;;;;;;5076460;28;20109;-75
2022/05/31 01:53:37;;;;;;;3.47;1.08;;;14.60;76.80;;;;;;5076108;28;20553;-75
2022/05/31 01:56:03;;;;;;;4.88;1.00;;;14.60;76.90;;;;;;5076281;28;20464;-75
2022/05/31 01:58:33;;;;;;;2.35;1.02;;;14.60;76.80;;;;;;5076343;28;20032;-75
2022/05/31 02:01:01;;;;;;;3.30;1.20;;;14.60;76.80;;;;;;5076519;28;20029;-75
2022/05/31 02:03:28;;;;;;;2.60;1.50;;;14.50;76.80;;;;;;5076258;28;20036;-75
2022/05/31 02:05:54;;;;;;;2.95;1.55;;;14.50;76.90;;;;;;5075880;28;20537;-75
2022/05/31 02:08:22;;;;;;;2.28;1.00;;;14.40;77.10;;;;;;5076055;28;20045;-74
2022/05/31 02:10:48;;;;;;;3.92;1.05;;;14.40;77.30;;;;;;5076267;28;20029;-75
2022/05/31 02:13:15;;;;;;;3.13;0.90;;;14.50;77.40;;;;;;5076269;28;20035;-75
2022/05/31 02:15:41;;;;;;;3.08;1.20;;;14.50;77.30;;;;;;5075912;28;20028;-75
2022/05/31 02:18:08;;;;;;;3.22;1.20;;;14.50;77.30;;;;;;5076022;28;20414;-74
2022/05/31 02:20:34;;;;;;;3.60;1.25;;;14.50;77.10;;;;;;5076003;28;20025;-75
2022/05/31 02:22:59;;;;;;;2.85;0.57;;;14.50;77.00;;;;;;5075851;28;20078;-75
2022/05/31 02:25:25;;;;;;;4.88;1.10;;;14.60;77.20;;;;;;5076019;28;20032;-75
2022/05/31 02:27:51;;;;;;;4.90;1.42;;;14.60;77.30;;;;;;5075794;28;20036;-75
2022/05/31 02:30:16;;;;;;;3.88;1.20;;;14.60;77.10;;;;;;5075627;28;20056;-74
2022/05/31 02:32:43;;;;;;;1.80;1.13;;;14.60;77.10;;;;;;5075443;28;20024;-75
2022/05/31 02:35:10;;;;;;;3.20;1.15;;;14.60;77.20;;;;;;5075788;28;20102;-75
2022/05/31 02:37:37;;;;;;;4.50;1.85;;;14.60;77.10;;;;;;5075887;28;20021;-75
2022/05/31 02:40:03;;;;;;;3.80;1.50;;;14.60;77.10;;;;;;5075486;28;20387;-75
2022/05/31 02:42:29;;;;;;;5.03;1.52;;;14.60;77.00;;;;;;5075456;28;20104;-75
2022/05/31 02:44:55;;;;;;;3.45;1.38;;;14.60;76.60;;;;;;5075399;28;20060;-75
2022/05/31 02:47:21;;;;;;;2.38;1.30;;;14.60;76.50;;;;;;5075102;28;20072;-75
2022/05/31 02:49:47;;;;;;;3.30;1.55;;;14.50;76.50;;;;;;5075209;28;20032;-75
2022/05/31 02:52:13;;;;;;;5.65;1.30;;;14.50;76.60;;;;;;5075586;28;20017;-75
2022/05/31 02:54:39;;;;;;;4.18;1.77;;;14.50;76.70;;;;;;5075301;28;20025;-75
2022/05/31 02:57:05;;;;;;;3.78;1.70;;;14.50;76.70;;;;;;5074721;28;20024;-75
2022/05/31 02:59:31;;;;;;;4.88;1.80;;;14.40;76.70;;;;;;5075463;28;20380;-75
2022/05/31 03:01:57;;;;;;;4.38;1.35;;;14.40;76.70;;;;;;5075368;28;20032;-75
2022/05/31 03:04:23;;;;;;;3.67;1.50;;;14.40;76.80;;;;;;5075071;28;20495;-75
2022/05/31 03:06:49;;;;;;;4.22;1.55;;;14.30;77.00;;;;;;5075132;28;20040;-75
2022/05/31 03:09:15;;;;;;;3.00;1.33;;;14.30;77.10;;;;;;5075176;28;20422;-75
2022/05/31 03:11:46;;;;;;;3.58;1.52;;;14.30;77.20;;;;;;5075185;28;20383;-75
2022/05/31 03:14:21;;;;;;;3.70;1.80;;;14.40;77.40;;;;;;5074968;28;20027;-75
2022/05/31 03:16:55;;;;;;;3.67;1.25;;;14.40;77.40;;;;;;5074595;28;20537;-76
2022/05/31 03:19:26;;;;;;;4.75;1.55;;;14.40;77.40;;;;;;5074899;28;20060;-76
2022/05/31 03:21:55;;;;;;;2.00;1.55;;;14.40;77.30;;;;;;5074823;28;20170;-76
2022/05/31 03:24:27;;;;;;;3.75;1.65;;;14.40;77.20;;;;;;5074880;28;20028;-76
2022/05/31 03:26:56;;;;;;;3.80;2.30;;;14.40;77.20;;;;;;5074594;28;20472;-76
2022/05/31 03:29:22;;;;;;;2.17;1.70;;;14.40;77.10;;;;;;5074508;28;20544;-76
2022/05/31 03:31:48;;;;;;;2.58;1.80;;;14.30;77.20;;;;;;5074459;28;20111;-76
2022/05/31 03:34:13;;;;;;;3.75;2.20;;;14.30;77.30;;;;;;5074773;28;20139;-76
2022/05/31 03:36:39;;;;;;;3.33;2.25;;;14.30;77.40;;;;;;5074005;28;20108;-76
2022/05/31 03:39:05;;;;;;;3.95;1.90;;;14.30;77.30;;;;;;5074540;28;20027;-76
2022/05/31 03:41:35;;;;;;;4.30;1.83;;;14.30;77.60;;;;;;5074614;28;20361;-76
2022/05/31 03:44:01;;;;;;;3.05;1.98;;;14.20;77.70;;;;;;5074419;28;20021;-76
2022/05/31 03:46:27;;;;;;;2.78;1.70;;;14.20;77.50;;;;;;5074248;28;20090;-76
2022/05/31 03:48:53;;;;;;;4.63;2.40;;;14.30;77.60;;;;;;5074289;28;20036;-76
2022/05/31 03:51:18;;;;;;;4.00;2.17;;;14.30;77.50;;;;;;5074152;28;20039;-76
2022/05/31 03:53:44;;;;;;;4.50;1.80;;;14.20;77.40;;;;;;5074061;28;20029;-76
2022/05/31 03:56:11;;;;;;;5.30;2.15;;;14.20;77.50;;;;;;5074002;28;20036;-75
2022/05/31 03:58:38;;;;;;;3.92;2.90;;;14.20;77.50;;;;;;5074264;28;20024;-76
2022/05/31 04:01:04;;;;;;;4.25;2.67;;;14.20;77.60;;;;;;5073881;28;20024;-76
2022/05/31 04:03:30;;;;;;;4.88;2.28;;;14.20;77.60;;;;;;5073927;28;20495;-75
2022/05/31 04:05:56;;;;;;;4.97;2.38;;;14.10;77.60;;;;;;5074093;28;20372;-76
2022/05/31 04:08:22;;;;;;;4.80;3.20;;;14.10;77.80;;;;;;5073445;28;20031;-73
2022/05/31 04:10:48;;;;;;;4.60;2.72;;;14.10;77.70;;;;;;5073529;28;20032;-74
2022/05/31 04:13:16;;;;;;;5.55;2.80;;;14.00;77.70;;;;;;5073675;28;20021;-74
2022/05/31 04:15:42;;;;;;;4.32;2.60;;;14.00;77.60;;;;;;5073734;28;20020;-74
2022/05/31 04:18:10;;;;;;;5.10;2.75;;;14.00;77.80;;;;;;5073922;28;20016;-75
2022/05/31 04:20:43;;;;;;;4.57;2.88;;;14.00;77.90;;;;;;5073502;28;20028;-76
2022/05/31 04:26:06;;;;;;;3.15;2.05;;;14.00;78.00;;;;;;5073605;28;20124;-76
2022/05/31 04:28:31;;;;;;;6.28;2.83;;;13.90;78.30;;;;;;5073481;28;20028;-75
2022/05/31 04:30:57;;;;;;;6.90;3.20;;;13.90;78.40;;;;;;5073382;28;20070;-75
2022/05/31 04:33:23;;;;;;;7.18;3.10;;;13.80;78.40;;;;;;5073622;28;20024;-75
2022/05/31 04:36:00;;;;;;;5.38;3.38;;;13.70;78.80;;;;;;5073570;28;20044;-75
2022/05/31 04:38:26;;;;;;;4.55;3.42;;;13.60;79.00;;;;;;5073500;28;20032;-75
2022/05/31 04:40:52;;;;;;;6.20;3.63;;;13.60;79.30;;;;;;5073354;28;20025;-75
2022/05/31 04:43:17;;;;;;;5.32;3.85;;;13.50;79.70;;;;;;5073602;28;20103;-75
2022/05/31 04:45:43;;;;;;;8.45;3.45;;;13.50;79.90;;;;;;5073173;28;20031;-75
2022/05/31 04:48:08;;;;;;;4.63;3.45;;;13.40;80.30;;;;;;5073024;28;20048;-76
2022/05/31 04:50:35;;;;;;;5.18;3.67;;;13.30;80.50;;;;;;5073162;28;20511;-75
2022/05/31 04:53:01;;;;;;;6.38;4.30;;;13.30;80.90;;;;;;5073279;28;20030;-75
2022/05/31 04:55:29;;;;;;;5.20;3.72;;;13.30;81.10;;;;;;5073190;28;20024;-76
2022/05/31 04:57:54;;;;;;;7.03;3.90;;;13.20;81.20;;;;;;5073135;28;20380;-75
2022/05/31 05:00:20;;;;;;;6.38;3.65;;;13.30;81.30;;;;;;5073225;28;20025;-75
2022/05/31 05:02:46;;;;;;;10.60;4.22;;;13.30;81.30;;;;;;5073075;28;20545;-75
2022/05/31 05:05:12;;;;;;;6.75;3.25;;;13.30;81.10;;;;;;5073001;28;20025;-75
2022/05/31 05:07:38;;;;;;;6.30;4.18;;;13.40;81.20;;;;;;5073011;28;20375;-75
2022/05/31 05:10:07;;;;;;;6.43;4.50;;;13.50;80.90;;;;;;5072942;28;20040;-75
2022/05/31 05:12:33;;;;;;;9.48;4.53;;;13.40;80.80;;;;;;5072891;28;20040;-75
2022/05/31 05:14:59;;;;;;;7.93;4.55;;;13.40;80.90;;;;;;5072641;28;20502;-75
2022/05/31 05:17:25;;;;;;;6.45;4.15;;;13.50;80.90;;;;;;5073035;28;20020;-75
2022/05/31 05:19:51;;;;;;;7.00;4.63;;;13.50;80.90;;;;;;5073055;28;20074;-75
2022/05/31 05:22:17;;;;;;;8.38;4.30;;;13.60;80.60;;;;;;5076457;28;20021;-75
2022/05/31 05:24:43;;;;;;;7.07;3.97;;;13.60;80.30;;;;;;5076854;28;20028;-75
2022/05/31 05:27:08;;;;;;;8.05;4.22;;;13.60;80.70;;;;;;5076685;28;20021;-75
2022/05/31 05:32:19;;;;;;;8.93;4.38;;;13.60;80.80;;;;;;5076521;28;20026;-74
2022/05/31 05:34:49;;;;;;;14.15;5.40;;;13.50;81.00;;;;;;5076232;28;20115;-75
2022/05/31 05:37:16;;;;;;;5.75;3.53;;;13.40;80.90;;;;;;5076259;28;20099;-75
2022/05/31 05:39:42;;;;;;;8.73;4.63;;;13.40;81.30;;;;;;5076305;28;20480;-75
2022/05/31 05:42:08;;;;;;;5.20;3.97;;;13.40;81.70;;;;;;5076495;28;20056;-74
2022/05/31 05:44:33;;;;;;;5.97;3.50;;;13.50;81.90;;;;;;5076162;28;20081;-75
2022/05/31 05:46:59;;;;;;;6.78;3.70;;;13.60;82.10;;;;;;5075826;28;20041;-75
2022/05/31 05:49:24;;;;;;;7.45;4.93;;;13.70;81.70;;;;;;5076156;28;20037;-75
2022/05/31 05:51:50;;;;;;;9.60;5.03;;;13.70;81.20;;;;;;5076017;28;20027;-74
2022/05/31 05:54:15;;;;;;;9.68;4.07;;;13.70;81.70;;;;;;5075894;28;20021;-76
2022/05/31 05:56:41;;;;;;;11.40;5.25;;;13.70;81.10;;;;;;5075988;28;20048;-76
2022/05/31 05:59:07;;;;;;;8.60;5.38;;;13.80;81.40;;;;;;5075718;28;20032;-76
2022/05/31 06:01:38;;;;;;;8.18;4.47;;;13.70;81.70;;;;;;5075778;28;20036;-76
2022/05/31 06:04:06;;;;;;;8.15;4.97;;;13.60;81.80;;;;;;5076248;28;20039;-75
2022/05/31 06:06:35;;;;;;;8.00;5.00;;;13.50;81.90;;;;;;5076279;28;20028;-76
2022/05/31 06:09:10;;;;;;;7.60;4.10;;;13.50;82.00;;;;;;5076070;28;20056;-75
2022/05/31 06:11:41;;;;;;;12.32;5.30;;;13.50;82.10;;;;;;5076100;28;20047;-74
2022/05/31 06:14:14;;;;;;;8.77;4.57;;;13.60;82.30;;;;;;5075780;28;20028;-74
2022/05/31 06:16:46;;;;;;;11.88;4.90;;;13.60;82.20;;;;;;5076147;28;20048;-75
2022/05/31 06:19:22;;;;;;;11.93;5.47;;;13.70;82.10;;;;;;5076049;28;20017;-75
2022/05/31 06:21:50;;;;;;;8.38;4.95;;;13.70;82.50;;;;;;5076053;28;20055;-75
2022/05/31 06:24:18;;;;;;;12.70;5.95;;;13.70;82.70;;;;;;5075448;28;20031;-75
2022/05/31 06:26:44;;;;;;;11.55;5.28;;;13.80;82.50;;;;;;5075884;28;20028;-75
2022/05/31 06:29:09;;;;;;;8.60;4.80;;;13.70;83.10;;;;;;5075506;28;20036;-75
2022/05/31 06:31:35;;;;;;;7.20;4.90;;;13.80;82.70;;;;;;5075287;28;20077;-74
2022/05/31 06:34:00;;;;;;;14.48;5.80;;;13.90;83.00;;;;;;5074802;28;20028;-75
2022/05/31 06:36:26;;;;;;;7.65;5.40;;;13.90;83.10;;;;;;5075428;28;20070;-75
2022/05/31 06:38:52;;;;;;;12.50;4.90;;;13.90;83.20;;;;;;5075755;28;20028;-75
2022/05/31 06:41:17;;;;;;;6.20;4.50;;;13.90;83.20;;;;;;5075392;28;20020;-75
2022/05/31 06:43:43;;;;;;;10.88;4.70;;;14.10;83.00;;;;;;5075285;28;20021;-75
2022/05/31 06:46:10;;;;;;;9.63;5.18;;;14.10;82.70;;;;;;5074988;28;20368;-75
2022/05/31 06:48:36;;;;;;;8.55;5.38;;;14.10;82.40;;;;;;5075443;28;20186;-75
2022/05/31 06:51:10;;;;;;;13.23;4.57;;;14.10;82.80;;;;;;5075286;28;20491;-74
2022/05/31 06:59:05;;;;;;;11.65;5.03;;;14.20;82.80;;;;;;5075401;28;20028;-74
2022/05/31 07:01:37;;;;;;;9.75;4.82;;;14.20;82.60;;;;;;5074978;28;20029;-75
2022/05/31 07:04:04;;;;;;;8.98;4.65;;;14.30;82.70;;;;;;5075088;28;20027;-75
2022/05/31 07:06:32;;;;;;;6.95;5.00;;;14.30;82.50;;;;;;5075243;28;20120;-75
2022/05/31 07:08:57;;;;;;;9.02;5.20;;;14.40;82.50;;;;;;5074859;28;20036;-75
2022/05/31 07:11:23;;;;;;;12.88;4.35;;;14.50;82.60;;;;;;5074730;28;20029;-75
2022/05/31 07:13:49;;;;;;;8.40;5.13;;;14.50;82.60;;;;;;5075000;28;20028;-75
2022/05/31 07:16:15;;;;;;;9.80;5.95;;;14.40;80.90;;;;;;5074705;28;20024;-75
2022/05/31 07:18:41;;;;;;;11.15;4.95;;;14.30;80.50;;;;;;5074573;28;20098;-75
2022/05/31 07:21:07;;;;;;;10.73;4.70;;;14.20;81.20;;;;;;5074380;28;20070;-75
2022/05/31 07:23:32;;;;;;;7.10;4.97;;;14.20;81.50;;;;;;5074649;28;20029;-75
2022/05/31 07:25:59;;;;;;;6.40;4.50;;;14.20;81.80;;;;;;5074379;28;20020;-75
2022/05/31 07:28:28;;;;;;;7.53;4.55;;;14.30;82.30;;;;;;5074614;28;20120;-75
2022/05/31 07:30:54;;;;;;;10.32;5.55;;;14.30;82.60;;;;;;5074683;28;20381;-75
2022/05/31 07:33:20;;;;;;;10.25;5.40;;;14.40;81.80;;;;;;5074418;28;20032;-75
2022/05/31 07:35:46;;;;;;;14.80;5.95;;;14.40;81.90;;;;;;5074410;28;20028;-75
2022/05/31 07:38:11;;;;;;;11.07;5.47;;;14.50;81.00;;;;;;5074167;28;20059;-75
2022/05/31 07:40:37;;;;;;;9.60;5.50;;;14.50;80.90;;;;;;5074052;28;20025;-75
2022/05/31 07:43:03;;;;;;;12.00;5.28;;;14.60;80.90;;;;;;5074119;28;20021;-75
2022/05/31 07:45:29;;;;;;;12.27;5.13;;;14.60;80.80;;;;;;5074096;28;20057;-75
2022/05/31 07:47:54;;;;;;;13.20;5.63;;;14.60;80.60;;;;;;5074001;28;20055;-75
2022/05/31 07:50:20;;;;;;;10.95;4.90;;;14.60;81.00;;;;;;5073911;28;20024;-75
2022/05/31 07:52:46;;;;;;;10.73;5.40;;;14.60;81.50;;;;;;5073601;28;20361;-75
2022/05/31 07:55:12;;;;;;;10.13;4.63;;;14.70;81.30;;;;;;5073879;28;20112;-75
2022/05/31 08:00:21;;;;;;;11.43;5.25;;;14.70;80.50;;;;;;5073958;28;20380;-75
2022/05/31 08:02:47;;;;;;;6.90;3.90;;;14.80;81.10;;;;;;5073839;28;20029;-75
2022/05/31 08:05:13;;;;;;;10.05;4.40;;;14.80;80.70;;;;;;5074104;28;20029;-75
2022/05/31 08:07:39;;;;;;;9.23;4.43;;;14.80;80.60;;;;;;5073257;28;20020;-75
2022/05/31 08:10:06;;;;;;;9.68;4.15;;;14.90;80.80;;;;;;5073971;28;20036;-75
2022/05/31 08:12:31;;;;;;;8.55;3.75;;;14.90;80.40;;;;;;5073722;28;20020;-75
2022/05/31 08:14:57;;;;;;;8.75;4.55;;;15.00;80.40;;;;;;5073919;28;20028;-75
2022/05/31 08:17:22;;;;;;;10.10;5.47;;;15.10;80.30;;;;;;5073780;28;20016;-75
2022/05/31 08:19:48;;;;;;;11.75;5.32;;;15.10;80.40;;;;;;5073607;28;20086;-75
2022/05/31 08:22:14;;;;;;;10.35;6.15;;;15.00;79.90;;;;;;5073570;28;20025;-75
2022/05/31 08:24:39;;;;;;;8.68;5.07;;;14.80;80.00;;;;;;5073817;28;20437;-75
2022/05/31 08:27:05;;;;;;;11.35;5.82;;;14.70;80.50;;;;;;5073548;28;20387;-75
2022/05/31 08:29:31;;;;;;;8.85;5.22;;;14.80;80.80;;;;;;5073609;28;20039;-75
2022/05/31 08:31:58;;;;;;;10.48;5.40;;;14.80;81.20;;;;;;5072261;28;20071;-75
2022/05/31 08:34:28;;;;;;;10.82;4.93;;;14.90;80.80;;;;;;5071909;28;20029;-75
2022/05/31 08:36:54;;;;;;;13.10;5.70;;;14.90;81.10;;;;;;5072869;28;20017;-75
2022/05/31 08:39:20;;;;;;;9.77;5.38;;;14.90;81.10;;;;;;5073083;28;20035;-76
2022/05/31 08:41:48;;;;;;;10.25;5.00;;;15.00;81.80;;;;;;5071526;28;20024;-76
2022/05/31 08:44:51;;;;;;;13.48;5.05;;;15.00;81.50;;;;;;5072171;28;20031;-73
2022/05/31 08:47:31;;;;;;;11.13;5.28;;;15.10;81.20;;;;;;5072313;28;20041;-75
2022/05/31 08:53:30;;;;;;;8.90;5.55;;;15.30;82.40;;;;;;5072558;28;20035;-74
2022/05/31 08:58:55;;;;;;;10.65;4.85;;;15.40;81.70;;;;;;5073146;28;20027;-76
2022/05/31 09:01:24;;;;;;;8.82;5.43;;;15.50;81.50;;;;;;5072870;28;20043;-76
2022/05/31 09:03:59;;;;;;;7.90;5.45;;;15.60;81.30;;;;;;5072554;28;20458;-76
2022/05/31 09:06:36;;;;;;;7.30;4.95;;;15.60;81.60;;;;;;5072769;28;20121;-76
2022/05/31 09:09:23;;;;;;;9.30;5.68;;;15.70;80.20;;;;;;5072833;28;20556;-75
2022/05/31 09:11:49;;;;;;;10.02;5.43;;;15.90;81.20;;;;;;5071622;28;20025;-75
2022/05/31 09:14:34;;;;;;;10.77;5.32;;;16.10;80.90;;;;;;5072536;28;20510;-75
2022/05/31 09:17:25;;;;;;;6.82;4.47;;;16.20;78.10;;;;;;5073024;28;20024;-76
2022/05/31 09:20:10;;;;;;;7.70;4.85;;;16.30;78.20;;;;;;5072713;28;20032;-75
2022/05/31 09:22:42;;;;;;;8.82;4.57;;;16.50;79.70;;;;;;5072629;28;20032;-77
2022/05/31 09:25:07;;;;;;;9.18;5.40;;;16.90;79.70;;;;;;5072844;28;20027;-75
2022/05/31 09:27:45;;;;;;;7.53;5.00;;;17.20;79.50;;;;;;5072714;28;20531;-75
2022/05/31 09:30:27;;;;;;;6.85;4.50;;;17.50;75.40;;;;;;5072894;28;20093;-76
2022/05/31 09:33:17;;;;;;;6.43;4.03;;;17.60;74.80;;;;;;5072655;28;20039;-75
2022/05/31 09:36:03;;;;;;;6.60;4.30;;;17.70;72.90;;;;;;5072485;28;20480;-76
2022/05/31 09:38:43;;;;;;;7.72;3.63;;;17.80;72.10;;;;;;5072479;28;20040;-76
2022/05/31 09:41:39;;;;;;;7.60;4.10;;;17.90;73.10;;;;;;5072525;28;20017;-76
2022/05/31 09:44:39;;;;;;;7.07;3.90;;;18.10;72.80;;;;;;5072732;28;20115;-76
2022/05/31 09:47:26;;;;;;;5.40;3.33;;;18.20;70.50;;;;;;5063607;28;20048;-76
2022/05/31 09:49:53;;;;;;;4.40;3.20;;;18.40;69.70;;;;;;5072023;28;20043;-76
2022/05/31 09:52:42;;;;;;;4.47;2.78;;;18.50;70.40;;;;;;5072269;28;20025;-76
2022/05/31 09:58:19;;;;;;;7.03;3.47;;;18.70;68.90;;;;;;5072292;28;20446;-76
2022/05/31 10:01:21;;;;;;;5.78;3.30;;;19.00;71.30;;;;;;5072407;28;20078;-75
2022/05/31 10:03:52;;;;;;;5.55;2.67;;;19.30;69.60;;;;;;5072061;28;20027;-76
2022/05/31 10:06:33;;;;;;;7.97;3.33;;;19.40;68.50;;;;;;5072226;28;20486;-77
2022/05/31 10:09:16;;;;;;;5.18;3.00;;;19.30;66.20;;;;;;5075673;28;20472;-76
2022/05/31 10:11:45;;;;;;;7.10;2.38;;;19.00;67.10;;;;;;5075650;28;20070;-75
2022/05/31 10:14:32;;;;;;;5.70;1.80;;;18.80;67.00;;;;;;5075468;28;20502;-76
2022/05/31 10:17:29;;;;;;;6.63;1.45;;;18.80;69.00;;;;;;5075952;28;20024;-77
2022/05/31 10:20:18;;;;;;;4.60;1.67;;;19.10;67.10;;;;;;5075680;28;20115;-77
2022/05/31 10:22:50;;;;;;;2.95;1.70;;;19.50;65.90;;;;;;5075702;28;20031;-77
2022/05/31 10:25:22;;;;;;;4.15;1.98;;;19.60;64.30;;;;;;5075570;28;20125;-77
2022/05/31 10:27:48;;;;;;;3.37;1.70;;;19.70;63.40;;;;;;5075706;28;20028;-77
2022/05/31 10:30:22;;;;;;;4.85;1.33;;;19.80;62.60;;;;;;5075817;28;20031;-77
2022/05/31 10:32:51;;;;;;;6.05;1.58;;;19.90;61.30;;;;;;5075708;28;20379;-78
2022/05/31 10:35:36;;;;;;;4.93;1.35;;;20.10;60.30;;;;;;5075671;28;20034;-77
2022/05/31 10:38:16;;;;;;;3.80;1.70;;;20.20;60.20;;;;;;5076368;28;20413;-77
2022/05/31 10:40:57;;;;;;;3.45;1.33;;;20.30;59.90;;;;;;5075594;28;20025;-77
2022/05/31 10:43:36;;;;;;;3.03;1.27;;;20.30;59.70;;;;;;5074352;28;20032;-77
2022/05/31 10:46:07;;;;;;;3.53;1.27;;;20.30;60.80;;;;;;5075023;28;20035;-77
2022/05/31 10:48:39;;;;;;;5.57;1.40;;;20.50;58.50;;;;;;5075230;28;20044;-77
2022/05/31 10:51:15;;;;;;;3.95;1.48;;;20.50;57.60;;;;;;5075347;28;20029;-77
2022/05/31 10:53:46;;;;;;;2.70;1.27;;;20.50;58.10;;;;;;5074977;28;20598;-77
2022/05/31 10:56:17;;;;;;;3.33;1.13;;;20.50;58.40;;;;;;5075273;28;20063;-77
2022/05/31 10:58:52;;;;;;;3.28;1.77;;;20.70;59.20;;;;;;5075112;28;20029;-77
2022/05/31 11:02:03;;;;;;;2.30;1.40;;;20.70;57.80;;;;;;5075209;28;20040;-77
2022/05/31 11:04:47;;;;;;;3.63;1.30;;;20.70;58.60;;;;;;5032957;28;20098;-77
2022/05/31 11:07:36;;;;;;;3.10;0.85;;;20.90;55.50;;;;;;5074007;28;20039;-77
2022/05/31 11:13:59;;;;;;;3.22;1.70;;;20.80;56.40;;;;;;5074787;28;20097;-77
2022/05/31 11:16:57;;;;;;;3.45;1.98;;;20.90;57.30;;;;;;5072100;28;20025;-77
2022/05/31 11:19:43;;;;;;;3.63;1.92;;;21.10;57.90;;;;;;5064470;28;20492;-77
2022/05/31 11:22:35;;;;;;;3.60;1.13;;;21.20;58.10;;;;;;5074452;28;20070;-77
2022/05/31 11:25:06;;;;;;;3.40;1.83;;;21.30;56.60;;;;;;5074411;28;20021;-77
2022/05/31 11:27:41;;;;;;;5.07;1.60;;;21.40;56.30;;;;;;5074261;28;20267;-77
2022/05/31 11:30:21;;;;;;;3.97;1.80;;;21.40;56.20;;;;;;5074091;28;20439;-77
2022/05/31 11:32:53;;;;;;;2.63;1.20;;;21.40;56.50;;;;;;5074257;28;20027;-76
2022/05/31 11:35:33;;;;;;;3.70;1.80;;;21.40;55.30;;;;;;5074269;28;20035;-78
2022/05/31 11:38:05;;;;;;;3.67;0.98;;;21.40;55.90;;;;;;5074459;28;20115;-75
2022/05/31 11:40:49;;;;;;;2.17;0.93;;;21.40;53.30;;;;;;5074331;28;20031;-76
2022/05/31 11:43:21;;;;;;;2.45;0.90;;;21.50;52.40;;;;;;5074064;28;20032;-76
2022/05/31 11:46:01;;;;;;;1.98;0.50;;;21.70;53.30;;;;;;5073921;28;20486;-76
2022/05/31 11:48:35;;;;;;;2.90;1.00;;;21.80;51.80;;;;;;5073476;28;20037;-76
2022/05/31 11:51:23;;;;;;;2.65;0.93;;;21.90;50.30;;;;;;5074310;28;20024;-76
2022/05/31 11:54:24;;;;;;;2.58;1.10;;;21.80;49.40;;;;;;5074185;28;20024;-76
2022/05/31 11:57:17;;;;;;;5.20;1.00;;;21.80;49.10;;;;;;5070473;28;20032;-76
2022/05/31 12:00:02;;;;;;;2.28;0.50;;;21.80;48.80;;;;;;5074210;28;20356;-76
2022/05/31 12:02:42;;;;;;;3.00;0.90;;;22.00;49.20;;;;;;5073795;28;20141;-77
2022/05/31 12:05:33;;;;;;;1.58;0.70;;;22.10;49.10;;;;;;5073496;28;20020;-78
2022/05/31 12:08:16;;;;;;;4.65;0.90;;;22.10;47.90;;;;;;5073590;28;20024;-75
2022/05/31 12:10:44;;;;;;;;;;;22.10;48.20;;;;;;5074078;28;20024;-79
2022/05/31 12:13:11;;;;;;;4.63;0.93;;;22.10;48.50;;;;;;5073505;28;20329;-81
2022/05/31 12:15:42;;;;;;;3.85;0.80;;;22.20;49.00;;;;;;5073351;28;20396;-77
2022/05/31 12:18:23;;;;;;;1.33;0.47;;;22.30;49.20;;;;;;5073280;28;20028;-78
2022/05/31 12:21:01;;;;;;;2.67;0.90;;;22.40;50.10;;;;;;5072313;28;20077;-79
2022/05/31 12:23:44;;;;;;;3.03;1.08;;;22.50;51.00;;;;;;5072891;28;20073;-78
2022/05/31 12:26:30;;;;;;;2.88;1.00;;;22.70;50.60;;;;;;5072588;28;20024;-80
2022/05/31 12:29:05;;;;;;;2.20;0.90;;;22.50;48.40;;;;;;5073498;28;20037;-80
2022/05/31 12:31:33;;;;;;;1.35;0.65;;;22.30;48.40;;;;;;5072356;28;20020;-78
2022/05/31 12:34:37;;;;;;;1.85;0.60;;;22.40;50.60;;;;;;5072854;28;20035;-79
2022/05/31 12:37:08;;;;;;;1.42;0.55;;;22.40;50.90;;;;;;5031046;28;20030;-78
2022/05/31 12:39:36;;;;;;;1.38;0.70;;;22.60;52.20;;;;;;5066980;28;20490;-78
2022/05/31 12:42:14;;;;;;;4.28;0.60;;;22.60;50.40;;;;;;5072884;28;20476;-78
2022/05/31 12:44:42;;;;;;;3.83;1.02;;;22.70;50.40;;;;;;5073314;28;20039;-79
2022/05/31 12:47:26;;;;;;;3.30;0.80;;;22.80;49.10;;;;;;5072798;28;20080;-79
2022/05/31 12:50:02;;;;;;;2.38;1.10;;;22.60;47.80;;;;;;5073316;28;20106;-79
2022/05/31 12:55:04;;;;;;;1.98;0.60;;;22.20;48.90;;;;;;5073094;28;20037;-78
2022/05/31 13:00:36;;;;;;;1.58;0.50;;;22.50;48.40;;;;;;5073114;28;20170;-75
2022/05/31 13:03:25;;;;;;;3.58;0.73;;;22.70;48.00;;;;;;5072024;28;20029;-77
2022/05/31 13:06:03;;;;;;;2.45;0.43;;;22.70;47.20;;;;;;5071610;28;20025;-77
2022/05/31 13:20:13;;;;;;;2.45;0.70;;;21.50;46.80;;;;;;5073154;28;20097;-77
2022/05/31 13:22:43;;;;;;;2.95;0.68;;;21.40;47.30;;;;;;5072890;28;20021;-76
2022/05/31 13:25:36;;;;;;;2.90;0.40;;;21.40;48.60;;;;;;5072915;28;20442;-77
2022/05/31 13:28:03;;;;;;;2.83;0.88;;;21.30;49.20;;;;;;5072880;28;20158;-77
2022/05/31 13:30:32;;;;;;;2.08;0.65;;;21.20;48.10;;;;;;5072494;28;20032;-77
2022/05/31 13:32:58;;;;;;;1.17;0.70;;;21.10;47.80;;;;;;5070939;28;20110;-77
2022/05/31 13:35:28;;;;;;;1.80;0.50;;;21.00;48.20;;;;;;5072520;28;20032;-77
2022/05/31 13:38:01;;;;;;;2.75;0.45;;;20.90;48.90;;;;;;5072599;28;20023;-77
2022/05/31 13:40:49;;;;;;;1.73;0.50;;;20.90;49.50;;;;;;5072629;28;20086;-77
2022/05/31 13:43:27;;;;;;;1.75;0.40;;;20.80;49.50;;;;;;5076333;28;20109;-77
2022/05/31 13:45:55;;;;;;;4.25;0.38;;;20.70;50.00;;;;;;5075939;28;20033;-77
2022/05/31 13:48:24;;;;;;;5.18;0.52;;;20.70;51.60;;;;;;5075816;28;20130;-77
2022/05/31 13:51:02;;;;;;;3.58;0.63;;;20.60;52.20;;;;;;5076275;28;20021;-77